Aberdeen, Idaho
Current Conditions -  °F | °C
As of 3:53 AM on Thursday 27 Nov 2014 (Local Time) from KPIH Reporting Station
Clear Clear  
Wind Chill: 46°   Ceiling: Unl
Heat Index: 48°   Visibility: 10mi
Dew Point: 27°   Wind: 5mph
Humidity: 44%   Direction: 250°WSW
Pressure: 30.22"   Gusts: NA
Location:  42.94°N, 112.84°W
Report Text: KPIH 271053Z AUTO 25004KT 10SM CLR 09/M03 A3022 RMK AO2 SLP218 T00891028
Loading
Personal Weather Stations






























Interactive Weather Map New forecast layout! Learn more

10-Day Weather Forecast

Advertisements
Track Severe Weather on mobile